หน้าหลัก
METAR-TAF:

METAR-TAF

ท่าอากาศยาน :

เอสบีเยร์, เดนมาร์ก

ละติจูด: 55-32N, ลองจิจูด: 008-34E, ความสูง: 30 ม.

การสังเกตสภาพอากาศปัจจุบัน

รายงานได้ทำขึ้นเมื่อ 33 นาทีที่แล้ว ณ เวลา 00:20 UTC
ลม 15 นอตจากตะวันออกเฉียงเหนือ
อุณหภูมิ 16°C
ความชื้น 94%
ความกดอากาศ 1006 hPa
ทัศนวิสัย 10 กม. หรือมากกว่า

METAR: EKEB 130020Z AUTO 04015KT 9999 FEW008/// BKN039/// 16/15 Q1006

เวลา: 02:53 (00:53 UTC)

การพยากรณ์

รายงานได้ทำขึ้นเมื่อ 10 ชั่วโมงและ 28 นาทีที่แล้ว ณ เวลา 14:25 UTC
การพยากรณ์มีผลตั้งแต่วันที่ 12 ณ เวลา 15 UTC จนถึงวันที่ 12 ณ เวลา 21 UTC
ลม 10 นอตจากตะวันออก/ตะวันออกเฉียงเหนือ
ทัศนวิสัย 10 กม. หรือมากกว่า
มีเมฆกระจายเป็นบางส่วนที่ความสูง 2500 ฟุต
ชั่วคราว
ตั้งแต่วันที่ 12 ณ เวลา 20 UTC จนถึงวันที่ 12 ณ เวลา 21 UTC
ลม 15 นอตจากตะวันออก/ตะวันออกเฉียงเหนือโดยมีลมกระโชกได้ถึง25 นอต
ทัศนวิสัย: 3000 ม.
มีเมฆเป็นส่วนมากเว้นเป็นระยะที่ความสูง 5000 ฟุต, คิวมูโลนิมบัส.
ฝนโปรยปราย,

TAF: EKEB 121425Z 1215/1221 06010KT 9999 SCT025 TEMPO 1220/1221 06015G25KT 3000 SHRA BKN050CB

สังเกตการณ์สภาพอากาศและพยากรณ์อากาศของสนามบินมากกว่า 4000 แห่ง (รายงาน METAR และ TAF).

สถานีที่ดูได้จะแสดงไว้ด้วยจุดสีเหลืองและสีแดงบนแผนที่.

เลื่อนเมาส์ไปเหนือจุดเพื่อดูชื่อสถานี.

แล้วคลิกเพื่อดูสังเกตการณ์และการพยากรณ์สภาพอากาศ.

ในการเปลี่ยนแผนที่: คลิกที่ปุ่มสีเขียวที่มีกากบาทสีดำเพื่อซูมเข้า; ที่ปุ่มสีเขียวที่มีขีดเพื่อซูมออก; หรือที่ลูกศรสีเขียวเพื่อไปยังแผนที่ที่อยู่ติดกัน.


METAR-TAF: